Terminal Aerodrome Forecast
Issued by NWS Rapid City, SD

Home | Current Version | Previous Version | Text Only | Print | Product List | Glossary On
Versions: 1 2 3 4 5 6 7 8 9 10 11 12 13 14 15
895
FTUS43 KUNR 190520
TAFRAP
TAF
KRAP 190520Z 1906/2006 18008KT P6SM SCT250
     FM191200 26005KT P6SM SCT250
     FM191600 17013KT P6SM SCT250
     FM200000 14006KT P6SM SCT250=

USA.gov is the U.S. government's official web portal to all federal, state and local government web resources and services.